createdAt,value
2018-05-31T00:00:02.969Z,1012.58
2018-05-31T00:05:03.308Z,1012.57
2018-05-31T00:10:04.447Z,1012.6
2018-05-31T00:15:03.245Z,1012.64
2018-05-31T00:20:03.041Z,1012.69
2018-05-31T00:25:03.969Z,1012.74
2018-05-31T00:30:02.879Z,1012.75
2018-05-31T00:35:03.645Z,1012.75
2018-05-31T00:40:03.312Z,1012.77
2018-05-31T00:45:02.872Z,1012.88
2018-05-31T00:50:03.501Z,1012.78
2018-05-31T00:55:03.049Z,1012.75
2018-05-31T01:00:02.834Z,1012.71
2018-05-31T01:05:04.528Z,1012.74
2018-05-31T01:10:03.493Z,1012.7
2018-05-31T01:15:04.373Z,1012.67
2018-05-31T01:20:03.249Z,1012.71
2018-05-31T01:25:02.917Z,1012.65
2018-05-31T01:30:03.666Z,1012.66
2018-05-31T01:35:04.367Z,1012.64
2018-05-31T01:40:03.001Z,1012.54
2018-05-31T01:45:03.797Z,1012.46
2018-05-31T01:50:03.432Z,1012.45
2018-05-31T01:55:03.263Z,1012.45
2018-05-31T02:00:04.812Z,1012.49
2018-05-31T02:05:02.798Z,1012.51
2018-05-31T02:10:03.616Z,1012.45
2018-05-31T02:15:03.262Z,1012.45
2018-05-31T02:20:02.885Z,1012.37
2018-05-31T02:25:03.630Z,1012.35
2018-05-31T02:30:03.520Z,1012.34
2018-05-31T02:35:03.399Z,1012.41
2018-05-31T02:40:03.246Z,1012.47
2018-05-31T02:45:03.460Z,1012.43
2018-05-31T02:50:03.030Z,1012.44
2018-05-31T02:55:05.829Z,1012.45
2018-05-31T03:00:04.290Z,1012.33
2018-05-31T03:05:02.835Z,1012.38
2018-05-31T03:10:03.043Z,1012.39
2018-05-31T03:15:03.774Z,1012.42
2018-05-31T03:20:03.989Z,1012.36
2018-05-31T03:25:04.339Z,1012.46
2018-05-31T03:30:02.974Z,1012.43
2018-05-31T03:35:03.756Z,1012.37
2018-05-31T03:40:05.879Z,1012.45
2018-05-31T03:45:03.688Z,1012.39
2018-05-31T03:50:03.303Z,1012.43
2018-05-31T03:55:03.095Z,1012.41
2018-05-31T04:00:03.868Z,1012.45
2018-05-31T04:05:03.476Z,1012.42
2018-05-31T04:10:03.307Z,1012.42
2018-05-31T04:15:03.494Z,1012.37
2018-05-31T04:20:03.317Z,1012.46
2018-05-31T04:25:05.403Z,1012.45
2018-05-31T04:30:03.717Z,1012.55
2018-05-31T04:35:03.904Z,1012.58
2018-05-31T04:40:03.703Z,1012.97
2018-05-31T04:45:03.561Z,1012.84
2018-05-31T04:50:03.166Z,1012.74
2018-05-31T04:55:02.945Z,1013.03
2018-05-31T05:00:03.775Z,1013.16
2018-05-31T05:05:04.193Z,1012.87
2018-05-31T05:10:02.907Z,1012.94
2018-05-31T05:15:03.731Z,1013
2018-05-31T05:20:03.928Z,1013.16
2018-05-31T05:25:03.701Z,1013.18
2018-05-31T05:30:03.308Z,1013.03
2018-05-31T05:35:02.934Z,1013.03
2018-05-31T05:40:03.613Z,1013.04
2018-05-31T05:45:04.070Z,1013.03
2018-05-31T05:50:03.974Z,1013.11
2018-05-31T05:55:03.045Z,1013
2018-05-31T06:00:03.343Z,1013.06
2018-05-31T06:05:02.946Z,1012.95
2018-05-31T06:10:04.143Z,1013.03
2018-05-31T06:15:02.859Z,1013.06
2018-05-31T06:20:03.649Z,1013.04
2018-05-31T06:25:03.702Z,1013.03
2018-05-31T06:30:05.557Z,1013.01
2018-05-31T06:35:03.241Z,1013.03
2018-05-31T06:40:03.051Z,1013.11
2018-05-31T06:45:03.636Z,1013.05
2018-05-31T06:50:03.256Z,1013.09
2018-05-31T06:55:03.010Z,1013.15
2018-05-31T07:00:03.567Z,1013.14
2018-05-31T07:05:03.165Z,1013.13
2018-05-31T07:10:03.025Z,1013.25
2018-05-31T07:15:03.724Z,1013.24
2018-05-31T07:20:03.371Z,1013.27
2018-05-31T07:25:03.002Z,1013.29
2018-05-31T07:30:03.792Z,1013.23
2018-05-31T07:35:03.550Z,1013.31
2018-05-31T07:40:03.321Z,1013.42
2018-05-31T07:45:02.910Z,1013.41
2018-05-31T07:50:03.525Z,1013.41
2018-05-31T07:55:03.262Z,1013.44
2018-05-31T08:00:02.978Z,1013.35
2018-05-31T08:05:03.729Z,1013.45
2018-05-31T08:10:03.383Z,1013.45
2018-05-31T08:15:02.893Z,1013.53
2018-05-31T08:20:03.607Z,1013.55
2018-05-31T08:25:03.192Z,1013.63
2018-05-31T08:30:02.850Z,1013.64
2018-05-31T08:35:03.626Z,1013.72
2018-05-31T08:40:03.278Z,1013.69
2018-05-31T08:45:02.858Z,1013.74
2018-05-31T08:50:03.448Z,1013.69
2018-05-31T08:55:03.060Z,1013.75
2018-05-31T09:00:03.798Z,1013.76
2018-05-31T09:05:03.417Z,1013.7
2018-05-31T09:10:03.021Z,1013.73
2018-05-31T09:15:04.358Z,1013.74
2018-05-31T09:20:02.891Z,1013.74
2018-05-31T09:25:03.509Z,1013.78
2018-05-31T09:30:03.126Z,1013.81
2018-05-31T09:35:03.171Z,1013.82
2018-05-31T09:40:02.906Z,1013.7
2018-05-31T09:45:03.511Z,1013.65
2018-05-31T09:50:03.090Z,1013.65
2018-05-31T09:55:03.686Z,1013.61
2018-05-31T10:00:03.285Z,1013.71
2018-05-31T10:05:03.001Z,1013.62
2018-05-31T10:10:03.626Z,1013.59
2018-05-31T10:15:03.194Z,1013.51
2018-05-31T10:20:02.808Z,1013.53
2018-05-31T10:25:03.372Z,1013.47
2018-05-31T10:30:02.998Z,1013.44
2018-05-31T10:35:03.636Z,1013.53
2018-05-31T10:40:03.372Z,1013.51
2018-05-31T10:45:02.983Z,1013.51
2018-05-31T10:50:03.592Z,1013.47
2018-05-31T10:55:03.209Z,1013.5
2018-05-31T11:00:02.807Z,1013.57
2018-05-31T11:05:03.508Z,1013.6
2018-05-31T11:10:03.149Z,1013.61
2018-05-31T11:15:03.122Z,1013.56
2018-05-31T11:20:02.998Z,1013.55
2018-05-31T11:25:02.936Z,1013.58
2018-05-31T11:30:03.546Z,1013.61
2018-05-31T11:35:03.105Z,1013.62
2018-05-31T11:40:02.752Z,1013.53
2018-05-31T11:45:03.395Z,1013.63
2018-05-31T11:50:02.980Z,1013.56
2018-05-31T11:55:03.608Z,1013.53
2018-05-31T12:00:03.235Z,1013.55
2018-05-31T12:05:02.847Z,1013.56
2018-05-31T12:10:03.481Z,1013.58
2018-05-31T12:15:03.038Z,1013.68
2018-05-31T12:20:03.645Z,1013.65
2018-05-31T12:25:03.249Z,1013.63
2018-05-31T12:30:02.845Z,1013.57
2018-05-31T12:35:03.441Z,1013.4
2018-05-31T12:40:03.045Z,1013.31
2018-05-31T12:45:02.770Z,1013.23
2018-05-31T12:50:03.373Z,1013.12
2018-05-31T12:55:02.920Z,1013.06
2018-05-31T13:00:03.499Z,1013.03
2018-05-31T13:05:03.075Z,1013.02
2018-05-31T13:10:03.702Z,1012.97
2018-05-31T13:15:03.269Z,1012.9
2018-05-31T13:20:02.851Z,1012.87
2018-05-31T13:25:03.495Z,1012.71
2018-05-31T13:30:03.131Z,1012.68
2018-05-31T13:35:02.747Z,1012.8
2018-05-31T13:40:03.377Z,1012.93
2018-05-31T13:45:02.890Z,1013.04
2018-05-31T13:50:03.449Z,1013.03
2018-05-31T13:55:03.024Z,1013.14
2018-05-31T14:00:03.572Z,1013.19
2018-05-31T14:05:03.330Z,1013.17
2018-05-31T14:10:03.011Z,1013.33
2018-05-31T14:15:03.648Z,1013.39
2018-05-31T14:20:03.175Z,1013.45
2018-05-31T14:25:02.785Z,1013.53
2018-05-31T14:30:03.398Z,1013.52
2018-05-31T14:35:02.996Z,1013.62
2018-05-31T14:40:03.670Z,1013.62
2018-05-31T14:45:03.693Z,1013.72
2018-05-31T14:50:03.267Z,1013.72
2018-05-31T14:55:02.845Z,1013.61
2018-05-31T15:00:03.455Z,1013.67
2018-05-31T15:05:03.016Z,1013.61
2018-05-31T15:10:03.668Z,1013.49
2018-05-31T15:15:03.262Z,1013.5
2018-05-31T15:20:02.880Z,1013.55
2018-05-31T15:25:03.481Z,1013.56
2018-05-31T15:30:03.080Z,1013.59
2018-05-31T15:35:03.704Z,1013.49
2018-05-31T15:40:03.356Z,1013.42
2018-05-31T15:45:02.913Z,1013.46
2018-05-31T15:50:03.538Z,1013.33
2018-05-31T15:55:03.212Z,1013.32
2018-05-31T16:00:02.761Z,1013.43
2018-05-31T16:05:03.439Z,1013.39
2018-05-31T16:10:03.114Z,1013.38
2018-05-31T16:15:02.985Z,1013.42
2018-05-31T16:20:04.131Z,1013.35
2018-05-31T16:25:03.742Z,1013.16
2018-05-31T16:30:03.355Z,1013.13
2018-05-31T16:35:03.280Z,1013.17
2018-05-31T16:40:03.034Z,1013.08
2018-05-31T16:45:03.610Z,1013.09
2018-05-31T16:50:03.213Z,1012.95
2018-05-31T16:55:02.984Z,1012.88
2018-05-31T17:00:03.607Z,1012.94
2018-05-31T17:05:03.207Z,1012.85
2018-05-31T17:10:03.161Z,1012.85
2018-05-31T17:15:02.760Z,1012.87
2018-05-31T17:20:03.319Z,1012.68
2018-05-31T17:25:02.913Z,1012.64
2018-05-31T17:30:03.463Z,1012.81
2018-05-31T17:35:03.067Z,1012.87
2018-05-31T17:40:03.705Z,1012.95
2018-05-31T17:45:03.308Z,1013.05
2018-05-31T17:50:02.986Z,1013.03
2018-05-31T17:55:03.590Z,1013.09
2018-05-31T18:00:03.262Z,1013.18
2018-05-31T18:05:03.292Z,1013.26
2018-05-31T18:10:03.360Z,1013.31
2018-05-31T18:15:02.875Z,1013.36
2018-05-31T18:20:03.495Z,1013.35
2018-05-31T18:25:03.035Z,1013.34
2018-05-31T18:30:03.763Z,1013.35
2018-05-31T18:35:03.387Z,1013.32
2018-05-31T18:40:03.341Z,1013.42
2018-05-31T18:45:03.061Z,1013.43
2018-05-31T18:50:03.658Z,1013.41
2018-05-31T18:55:03.252Z,1013.59
2018-05-31T19:00:02.842Z,1013.55
2018-05-31T19:05:03.510Z,1013.47
2018-05-31T19:10:03.174Z,1013.5
2018-05-31T19:15:02.775Z,1013.55
2018-05-31T19:20:03.349Z,1013.46
2018-05-31T19:25:02.900Z,1013.52
2018-05-31T19:30:03.469Z,1013.55
2018-05-31T19:35:03.168Z,1013.6
2018-05-31T19:40:02.781Z,1013.6
2018-05-31T19:45:03.361Z,1013.73
2018-05-31T19:50:02.926Z,1013.72
2018-05-31T19:55:03.480Z,1013.75
2018-05-31T20:00:03.078Z,1013.83
2018-05-31T20:05:02.750Z,1013.89
2018-05-31T20:10:03.363Z,1013.89
2018-05-31T20:15:02.953Z,1014.04
2018-05-31T20:20:03.611Z,1014.08
2018-05-31T20:25:03.186Z,1014.16
2018-05-31T20:30:02.833Z,1014.16
2018-05-31T20:35:03.472Z,1014.19
2018-05-31T20:40:03.157Z,1014.26
2018-05-31T20:45:02.775Z,1014.16
2018-05-31T20:50:03.366Z,1014.23
2018-05-31T20:55:02.919Z,1014.31
2018-05-31T21:00:03.560Z,1014.35
2018-05-31T21:05:03.122Z,1014.32
2018-05-31T21:10:02.814Z,1014.45
2018-05-31T21:15:03.533Z,1014.47
2018-05-31T21:20:03.334Z,1014.41
2018-05-31T21:25:03.105Z,1014.4
2018-05-31T21:30:02.714Z,1014.35
2018-05-31T21:35:03.330Z,1014.44
2018-05-31T21:40:03.036Z,1014.43
2018-05-31T21:45:03.658Z,1014.47
2018-05-31T21:50:03.229Z,1014.34
2018-05-31T21:55:02.800Z,1014.33
2018-05-31T22:00:03.427Z,1014.37
2018-05-31T22:05:03.047Z,1014.32
2018-05-31T22:10:03.688Z,1014.24
2018-05-31T22:15:03.265Z,1014.11
2018-05-31T22:20:02.868Z,1014.14
2018-05-31T22:25:03.374Z,1014.13
2018-05-31T22:30:02.913Z,1014.01
2018-05-31T22:35:03.573Z,1013.93
2018-05-31T22:40:03.211Z,1014
2018-05-31T22:45:02.772Z,1013.95
2018-05-31T22:50:03.368Z,1013.93
2018-05-31T22:55:02.900Z,1013.74
2018-05-31T23:00:03.430Z,1013.68
2018-05-31T23:05:02.690Z,1013.66
2018-05-31T23:10:03.331Z,1013.66
2018-05-31T23:15:02.947Z,1013.57
2018-05-31T23:20:03.594Z,1013.66
2018-05-31T23:25:03.196Z,1013.67
2018-05-31T23:30:02.738Z,1013.67
2018-05-31T23:35:03.364Z,1013.69
2018-05-31T23:40:03.004Z,1013.7
2018-05-31T23:45:03.581Z,1013.78
2018-05-31T23:50:03.208Z,1013.83
2018-05-31T23:55:02.776Z,1013.91
